createdAt,value
2024-05-09T00:00:22.028Z,466.00
2024-05-09T00:01:14.468Z,466.00
2024-05-09T00:02:14.488Z,466.00
2024-05-09T00:03:14.482Z,467.00
2024-05-09T00:04:14.448Z,468.00
2024-05-09T00:05:14.652Z,469.00
2024-05-09T00:06:14.470Z,469.00
2024-05-09T00:07:14.393Z,467.00
2024-05-09T00:08:14.558Z,471.00
2024-05-09T00:09:14.488Z,468.00
2024-05-09T00:10:22.527Z,469.00
2024-05-09T00:11:14.494Z,468.00
2024-05-09T00:12:14.412Z,465.00
2024-05-09T00:13:14.386Z,465.00
2024-05-09T00:14:14.353Z,469.00
2024-05-09T00:15:14.287Z,472.00
2024-05-09T00:16:14.277Z,473.00
2024-05-09T00:17:14.303Z,473.00
2024-05-09T00:18:14.471Z,472.00
2024-05-09T00:19:14.689Z,472.00
2024-05-09T00:20:20.462Z,473.00
2024-05-09T00:21:14.260Z,471.00
2024-05-09T00:22:14.207Z,471.00
2024-05-09T00:23:14.388Z,469.00
2024-05-09T00:24:14.200Z,468.00
2024-05-09T00:25:14.230Z,467.00
2024-05-09T00:26:14.252Z,465.00
2024-05-09T00:27:14.213Z,467.00
2024-05-09T00:28:14.154Z,467.00
2024-05-09T00:29:14.197Z,467.00
2024-05-09T00:30:21.119Z,467.00
2024-05-09T00:31:14.133Z,464.00
2024-05-09T00:32:14.231Z,461.00
2024-05-09T00:33:14.350Z,462.00
2024-05-09T00:34:14.278Z,465.00
2024-05-09T00:35:14.114Z,462.00
2024-05-09T00:36:14.076Z,463.00
2024-05-09T00:37:14.068Z,464.00
2024-05-09T00:38:14.095Z,464.00
2024-05-09T00:39:14.139Z,465.00
2024-05-09T00:40:18.782Z,465.00
2024-05-09T00:41:16.358Z,464.00
2024-05-09T00:42:14.030Z,466.00
2024-05-09T00:43:15.028Z,469.00
2024-05-09T00:44:14.064Z,469.00
2024-05-09T00:45:14.175Z,467.00
2024-05-09T00:46:13.995Z,467.00
2024-05-09T00:47:14.141Z,468.00
2024-05-09T00:48:16.236Z,469.00
2024-05-09T00:49:14.062Z,470.00
2024-05-09T00:50:19.287Z,469.00
2024-05-09T00:51:14.037Z,469.00
2024-05-09T00:52:13.934Z,467.00
2024-05-09T00:53:13.951Z,470.00
2024-05-09T00:54:13.853Z,470.00
2024-05-09T00:55:13.836Z,469.00
2024-05-09T00:56:13.875Z,473.00
2024-05-09T00:57:13.896Z,476.00
2024-05-09T00:58:13.844Z,474.00
2024-05-09T00:59:13.875Z,472.00
2024-05-09T01:00:22.642Z,473.00
2024-05-09T01:01:13.819Z,473.00
2024-05-09T01:02:13.923Z,471.00
2024-05-09T01:03:14.576Z,470.00
2024-05-09T01:04:13.935Z,472.00
2024-05-09T01:05:13.790Z,470.00
2024-05-09T01:06:13.749Z,470.00
2024-05-09T01:07:13.717Z,471.00
2024-05-09T01:08:13.844Z,470.00
2024-05-09T01:09:13.801Z,470.00
2024-05-09T01:10:20.916Z,469.00
2024-05-09T01:11:13.800Z,469.00
2024-05-09T01:12:13.931Z,471.00
2024-05-09T01:13:13.666Z,472.00
2024-05-09T01:14:13.714Z,472.00
2024-05-09T01:15:13.632Z,470.00
2024-05-09T01:16:13.675Z,468.00
2024-05-09T01:17:13.757Z,467.00
2024-05-09T01:18:14.123Z,466.00
2024-05-09T01:19:13.796Z,466.00
2024-05-09T01:20:20.039Z,465.00
2024-05-09T01:21:13.885Z,465.00
2024-05-09T01:22:13.603Z,467.00
2024-05-09T01:23:15.390Z,469.00
2024-05-09T01:24:13.515Z,468.00
2024-05-09T01:25:13.528Z,469.00
2024-05-09T01:26:13.659Z,469.00
2024-05-09T01:27:13.535Z,471.00
2024-05-09T01:28:13.505Z,471.00
2024-05-09T01:29:13.561Z,472.00
2024-05-09T01:30:17.430Z,470.00
2024-05-09T01:31:13.548Z,471.00
2024-05-09T01:32:13.606Z,472.00
2024-05-09T01:33:13.928Z,471.00
2024-05-09T01:34:13.475Z,468.00
2024-05-09T01:35:13.471Z,471.00
2024-05-09T01:36:13.485Z,471.00
2024-05-09T01:37:13.455Z,469.00
2024-05-09T01:38:14.126Z,467.00
2024-05-09T01:39:13.376Z,470.00
2024-05-09T01:40:18.541Z,469.00
2024-05-09T01:41:13.423Z,466.00
2024-05-09T01:42:13.338Z,466.00
2024-05-09T01:43:13.376Z,466.00
2024-05-09T01:44:13.620Z,465.00
2024-05-09T01:45:13.387Z,466.00
2024-05-09T01:46:13.406Z,466.00
2024-05-09T01:47:13.455Z,467.00
2024-05-09T01:48:13.428Z,465.00
2024-05-09T01:49:13.350Z,467.00
2024-05-09T01:50:16.408Z,467.00
2024-05-09T01:51:13.396Z,468.00
2024-05-09T01:52:13.382Z,469.00
2024-05-09T01:53:13.967Z,467.00
2024-05-09T01:54:13.286Z,468.00
2024-05-09T01:55:13.806Z,467.00
2024-05-09T01:56:13.290Z,467.00
2024-05-09T01:57:13.279Z,469.00
2024-05-09T01:58:13.207Z,469.00
2024-05-09T01:59:13.260Z,467.00
2024-05-09T02:00:19.003Z,468.00
2024-05-09T02:01:13.161Z,469.00
2024-05-09T02:02:13.262Z,469.00
2024-05-09T02:03:16.089Z,469.00
2024-05-09T02:04:13.458Z,469.00
2024-05-09T02:05:13.269Z,470.00
2024-05-09T02:06:13.117Z,470.00
2024-05-09T02:07:13.161Z,470.00
2024-05-09T02:08:13.093Z,470.00
2024-05-09T02:09:13.109Z,471.00
2024-05-09T02:10:20.181Z,471.00
2024-05-09T02:11:13.127Z,471.00
2024-05-09T02:12:13.171Z,471.00
2024-05-09T02:13:13.061Z,470.00
2024-05-09T02:14:13.040Z,468.00
2024-05-09T02:15:12.969Z,469.00
2024-05-09T02:16:12.950Z,467.00
2024-05-09T02:17:13.005Z,466.00
2024-05-09T02:18:13.648Z,468.00
2024-05-09T02:19:13.234Z,467.00
2024-05-09T02:20:18.943Z,469.00
2024-05-09T02:21:12.931Z,469.00
2024-05-09T02:22:12.901Z,471.00
2024-05-09T02:23:13.080Z,473.00
2024-05-09T02:24:12.986Z,473.00
2024-05-09T02:25:12.987Z,471.00
2024-05-09T02:26:12.949Z,469.00
2024-05-09T02:27:12.959Z,472.00
2024-05-09T02:28:12.827Z,475.00
2024-05-09T02:29:12.876Z,477.00
2024-05-09T02:30:18.991Z,478.00
2024-05-09T02:31:12.853Z,476.00
2024-05-09T02:32:12.962Z,476.00
2024-05-09T02:33:14.294Z,478.00
2024-05-09T02:34:12.854Z,475.00
2024-05-09T02:35:12.791Z,469.00
2024-05-09T02:36:12.879Z,467.00
2024-05-09T02:37:12.916Z,465.00
2024-05-09T02:38:13.362Z,467.00
2024-05-09T02:39:12.711Z,467.00
2024-05-09T02:40:14.915Z,470.00
2024-05-09T02:41:12.748Z,471.00
2024-05-09T02:42:12.910Z,471.00
2024-05-09T02:43:13.249Z,474.00
2024-05-09T02:44:12.779Z,474.00
2024-05-09T02:45:12.633Z,476.00
2024-05-09T02:46:12.645Z,476.00
2024-05-09T02:47:12.820Z,478.00
2024-05-09T02:48:13.848Z,477.00
2024-05-09T02:49:12.760Z,476.00
2024-05-09T02:51:12.681Z,477.00
2024-05-09T02:52:12.653Z,480.00
2024-05-09T02:53:12.722Z,479.00
2024-05-09T02:54:12.579Z,482.00
2024-05-09T02:55:12.507Z,484.00
2024-05-09T02:56:12.937Z,483.00
2024-05-09T02:57:12.512Z,483.00
2024-05-09T02:58:12.513Z,481.00
2024-05-09T02:59:12.549Z,481.00
2024-05-09T03:00:18.842Z,483.00
2024-05-09T03:01:12.463Z,483.00
2024-05-09T03:02:12.613Z,485.00
2024-05-09T03:03:14.602Z,483.00
2024-05-09T03:04:12.456Z,483.00
2024-05-09T03:05:12.436Z,479.00
2024-05-09T03:06:12.370Z,476.00
2024-05-09T03:07:12.357Z,476.00
2024-05-09T03:08:12.762Z,479.00
2024-05-09T03:09:12.413Z,478.00
2024-05-09T03:10:18.574Z,478.00
2024-05-09T03:11:12.419Z,479.00
2024-05-09T03:12:12.562Z,478.00
2024-05-09T03:13:13.562Z,479.00
2024-05-09T03:14:12.370Z,482.00
2024-05-09T03:15:12.336Z,478.00
2024-05-09T03:16:12.285Z,479.00
2024-05-09T03:17:12.307Z,479.00
2024-05-09T03:18:12.855Z,476.00
2024-05-09T03:19:12.589Z,475.00
2024-05-09T03:20:20.338Z,476.00
2024-05-09T03:21:12.299Z,477.00
2024-05-09T03:22:12.279Z,476.00
2024-05-09T03:23:12.500Z,477.00
2024-05-09T03:24:12.315Z,476.00
2024-05-09T03:25:12.179Z,475.00
2024-05-09T03:26:12.340Z,476.00
2024-05-09T03:27:12.263Z,478.00
2024-05-09T03:28:12.157Z,474.00
2024-05-09T03:29:12.218Z,475.00
2024-05-09T03:31:12.109Z,471.00
2024-05-09T03:32:12.320Z,471.00
2024-05-09T03:33:13.803Z,470.00
2024-05-09T03:34:12.267Z,471.00
2024-05-09T03:35:12.254Z,472.00
2024-05-09T03:36:12.138Z,474.00
2024-05-09T03:37:12.142Z,475.00
2024-05-09T03:38:12.431Z,473.00
2024-05-09T03:39:12.136Z,473.00
2024-05-09T03:40:20.249Z,473.00
2024-05-09T03:41:12.175Z,472.00
2024-05-09T03:42:12.146Z,471.00
2024-05-09T03:43:12.139Z,473.00
2024-05-09T03:44:12.245Z,472.00
2024-05-09T03:45:12.129Z,472.00
2024-05-09T03:46:12.000Z,475.00
2024-05-09T03:47:12.097Z,471.00
2024-05-09T03:48:12.238Z,472.00
2024-05-09T03:49:12.113Z,474.00
2024-05-09T03:50:18.365Z,473.00
2024-05-09T03:51:12.131Z,477.00
2024-05-09T03:52:11.965Z,478.00
2024-05-09T03:53:11.964Z,479.00
2024-05-09T03:54:12.358Z,478.00
2024-05-09T03:55:11.889Z,478.00
2024-05-09T03:56:12.531Z,477.00
2024-05-09T03:57:12.063Z,477.00
2024-05-09T03:58:11.904Z,475.00
2024-05-09T03:59:11.861Z,476.00
2024-05-09T04:00:17.917Z,476.00
2024-05-09T04:01:12.060Z,476.00
2024-05-09T04:02:11.924Z,478.00
2024-05-09T04:03:13.215Z,478.00
2024-05-09T04:04:11.803Z,476.00
2024-05-09T04:05:11.897Z,475.00
2024-05-09T04:06:11.727Z,476.00
2024-05-09T04:07:11.755Z,479.00
2024-05-09T04:08:11.924Z,479.00
2024-05-09T04:09:11.743Z,478.00
2024-05-09T04:10:20.956Z,478.00
2024-05-09T04:11:11.808Z,477.00
2024-05-09T04:12:11.754Z,480.00
2024-05-09T04:13:11.780Z,478.00
2024-05-09T04:14:11.801Z,477.00
2024-05-09T04:15:13.634Z,481.00
2024-05-09T04:16:11.690Z,479.00
2024-05-09T04:17:11.725Z,476.00
2024-05-09T04:18:11.686Z,473.00
2024-05-09T04:19:11.874Z,473.00
2024-05-09T04:20:21.316Z,475.00
2024-05-09T04:21:12.125Z,474.00
2024-05-09T04:22:11.688Z,470.00
2024-05-09T04:23:12.026Z,475.00
2024-05-09T04:24:11.534Z,479.00
2024-05-09T04:25:11.557Z,479.00
2024-05-09T04:26:11.779Z,477.00
2024-05-09T04:27:11.688Z,479.00
2024-05-09T04:28:11.664Z,481.00
2024-05-09T04:29:11.567Z,481.00
2024-05-09T04:30:18.945Z,481.00
2024-05-09T04:31:11.510Z,480.00
2024-05-09T04:32:11.654Z,476.00
2024-05-09T04:33:13.462Z,475.00
2024-05-09T04:34:11.766Z,478.00
2024-05-09T04:35:11.560Z,478.00
2024-05-09T04:36:11.417Z,479.00
2024-05-09T04:37:11.560Z,480.00
2024-05-09T04:38:11.588Z,475.00
2024-05-09T04:39:12.357Z,476.00
2024-05-09T04:40:20.485Z,477.00
2024-05-09T04:41:11.644Z,473.00
2024-05-09T04:42:11.363Z,472.00
2024-05-09T04:43:11.368Z,475.00
2024-05-09T04:44:11.328Z,473.00
2024-05-09T04:45:11.387Z,475.00
2024-05-09T04:46:11.376Z,471.00
2024-05-09T04:47:11.425Z,471.00
2024-05-09T04:48:11.692Z,472.00
2024-05-09T04:49:11.365Z,473.00
2024-05-09T04:50:11.795Z,474.00
2024-05-09T04:51:11.332Z,474.00
2024-05-09T04:52:11.321Z,477.00
2024-05-09T04:53:11.770Z,479.00
2024-05-09T04:54:22.116Z,478.00
2024-05-09T04:55:11.331Z,479.00
2024-05-09T04:56:11.332Z,478.00
2024-05-09T04:57:11.215Z,479.00
2024-05-09T04:58:11.295Z,480.00
2024-05-09T04:59:11.264Z,482.00
2024-05-09T05:00:14.908Z,481.00
2024-05-09T05:01:11.198Z,479.00
2024-05-09T05:02:11.256Z,479.00
2024-05-09T05:03:13.741Z,479.00
2024-05-09T05:04:11.274Z,479.00
2024-05-09T05:05:12.071Z,476.00
2024-05-09T05:06:11.126Z,477.00
2024-05-09T05:07:11.107Z,476.00
2024-05-09T05:08:11.116Z,477.00
2024-05-09T05:09:11.040Z,476.00
2024-05-09T05:10:15.053Z,473.00
2024-05-09T05:11:11.180Z,471.00
2024-05-09T05:12:11.174Z,474.00
2024-05-09T05:13:11.037Z,476.00
2024-05-09T05:14:11.033Z,477.00
2024-05-09T05:15:11.010Z,475.00
2024-05-09T05:16:11.063Z,475.00
2024-05-09T05:17:11.078Z,473.00
2024-05-09T05:18:11.218Z,473.00
2024-05-09T05:19:13.480Z,474.00
2024-05-09T05:20:15.213Z,477.00
2024-05-09T05:21:11.083Z,474.00
2024-05-09T05:22:10.974Z,470.00
2024-05-09T05:23:10.994Z,472.00
2024-05-09T05:24:10.890Z,470.00
2024-05-09T05:25:10.955Z,467.00
2024-05-09T05:26:10.941Z,466.00
2024-05-09T05:27:10.851Z,468.00
2024-05-09T05:28:10.957Z,468.00
2024-05-09T05:29:10.976Z,468.00
2024-05-09T05:30:17.585Z,468.00
2024-05-09T05:31:10.835Z,469.00
2024-05-09T05:32:10.917Z,468.00
2024-05-09T05:33:10.880Z,471.00
2024-05-09T05:34:10.899Z,471.00
2024-05-09T05:35:10.853Z,472.00
2024-05-09T05:36:10.897Z,474.00
2024-05-09T05:37:10.838Z,475.00
2024-05-09T05:38:11.099Z,473.00
2024-05-09T05:39:10.847Z,473.00
2024-05-09T05:40:14.631Z,471.00
2024-05-09T05:41:10.734Z,471.00
2024-05-09T05:42:10.933Z,474.00
2024-05-09T05:43:11.155Z,474.00
2024-05-09T05:44:10.814Z,474.00
2024-05-09T05:45:10.672Z,474.00
2024-05-09T05:46:10.674Z,473.00
2024-05-09T05:47:10.716Z,470.00
2024-05-09T05:48:10.779Z,474.00
2024-05-09T05:49:10.871Z,476.00
2024-05-09T05:50:20.711Z,472.00
2024-05-09T05:51:10.726Z,474.00
2024-05-09T05:52:10.663Z,476.00
2024-05-09T05:53:10.932Z,477.00
2024-05-09T05:54:10.559Z,476.00
2024-05-09T05:55:10.622Z,476.00
2024-05-09T05:56:10.709Z,475.00
2024-05-09T05:57:10.531Z,475.00
2024-05-09T05:58:10.569Z,474.00
2024-05-09T05:59:11.967Z,476.00
2024-05-09T06:00:17.956Z,474.00
2024-05-09T06:01:10.602Z,475.00
2024-05-09T06:02:10.609Z,474.00
2024-05-09T06:03:11.223Z,472.00
2024-05-09T06:04:10.617Z,473.00
2024-05-09T06:05:10.805Z,472.00
2024-05-09T06:06:10.467Z,473.00
2024-05-09T06:07:10.474Z,474.00
2024-05-09T06:08:10.654Z,470.00
2024-05-09T06:09:10.420Z,469.00
2024-05-09T06:10:17.316Z,464.00
2024-05-09T06:11:10.470Z,464.00
2024-05-09T06:12:10.524Z,465.00
2024-05-09T06:13:10.568Z,468.00
2024-05-09T06:14:10.379Z,467.00
2024-05-09T06:15:10.372Z,467.00
2024-05-09T06:16:10.353Z,462.00
2024-05-09T06:17:10.586Z,467.00
2024-05-09T06:18:11.723Z,467.00
2024-05-09T06:19:10.530Z,464.00
2024-05-09T06:20:20.112Z,466.00
2024-05-09T06:21:10.343Z,464.00
2024-05-09T06:22:10.256Z,463.00
2024-05-09T06:23:10.658Z,462.00
2024-05-09T06:24:10.245Z,462.00
2024-05-09T06:25:10.346Z,467.00
2024-05-09T06:26:10.406Z,471.00
2024-05-09T06:27:10.209Z,468.00
2024-05-09T06:28:10.188Z,468.00
2024-05-09T06:29:10.208Z,470.00
2024-05-09T06:30:21.039Z,470.00
2024-05-09T06:31:10.261Z,470.00
2024-05-09T06:32:10.337Z,471.00
2024-05-09T06:33:11.984Z,470.00
2024-05-09T06:34:10.302Z,468.00
2024-05-09T06:35:10.179Z,469.00
2024-05-09T06:36:10.100Z,471.00
2024-05-09T06:37:10.126Z,469.00
2024-05-09T06:38:10.383Z,469.00
2024-05-09T06:39:10.160Z,468.00
2024-05-09T06:40:10.189Z,466.00
2024-05-09T06:41:10.212Z,466.00
2024-05-09T06:42:10.060Z,465.00
2024-05-09T06:43:10.040Z,468.00
2024-05-09T06:44:10.167Z,470.00
2024-05-09T06:45:10.111Z,471.00
2024-05-09T06:46:09.985Z,470.00
2024-05-09T06:47:10.186Z,472.00
2024-05-09T06:48:11.156Z,472.00
2024-05-09T06:49:10.115Z,469.00
2024-05-09T06:50:19.609Z,471.00
2024-05-09T06:51:10.286Z,471.00
2024-05-09T06:52:10.023Z,472.00
2024-05-09T06:53:10.034Z,471.00
2024-05-09T06:54:09.903Z,472.00
2024-05-09T06:55:09.917Z,472.00
2024-05-09T06:56:09.924Z,472.00
2024-05-09T06:57:09.938Z,471.00
2024-05-09T06:58:11.052Z,472.00
2024-05-09T06:59:09.892Z,469.00
2024-05-09T07:00:15.520Z,470.00
2024-05-09T07:01:09.876Z,469.00
2024-05-09T07:02:09.880Z,467.00
2024-05-09T07:03:10.804Z,468.00
2024-05-09T07:04:10.040Z,469.00
2024-05-09T07:05:09.962Z,467.00
2024-05-09T07:06:09.934Z,468.00
2024-05-09T07:07:09.830Z,463.00
2024-05-09T07:08:10.312Z,461.00
2024-05-09T07:09:09.828Z,461.00
2024-05-09T07:10:14.986Z,463.00
2024-05-09T07:11:09.905Z,462.00
2024-05-09T07:12:09.854Z,466.00
2024-05-09T07:13:09.735Z,465.00
2024-05-09T07:14:09.731Z,463.00
2024-05-09T07:15:09.743Z,463.00
2024-05-09T07:16:09.701Z,467.00
2024-05-09T07:17:09.740Z,469.00
2024-05-09T07:18:09.977Z,470.00
2024-05-09T07:19:09.990Z,469.00
2024-05-09T07:20:16.161Z,467.00
2024-05-09T07:21:09.754Z,466.00
2024-05-09T07:22:09.716Z,464.00
2024-05-09T07:23:09.759Z,463.00
2024-05-09T07:24:09.633Z,464.00
2024-05-09T07:25:09.727Z,467.00
2024-05-09T07:26:09.729Z,468.00
2024-05-09T07:27:09.606Z,467.00
2024-05-09T07:28:09.660Z,466.00
2024-05-09T07:29:10.413Z,465.00
2024-05-09T07:30:13.513Z,468.00
2024-05-09T07:31:09.536Z,468.00
2024-05-09T07:32:09.504Z,470.00
2024-05-09T07:33:09.764Z,467.00
2024-05-09T07:34:09.666Z,465.00
2024-05-09T07:35:09.502Z,465.00
2024-05-09T07:36:09.512Z,462.00
2024-05-09T07:37:09.437Z,464.00
2024-05-09T07:38:09.494Z,466.00
2024-05-09T07:39:09.519Z,466.00
2024-05-09T07:40:12.048Z,465.00
2024-05-09T07:41:09.439Z,464.00
2024-05-09T07:42:09.402Z,463.00
2024-05-09T07:43:09.373Z,463.00
2024-05-09T07:44:09.921Z,462.00
2024-05-09T07:45:21.410Z,465.00
2024-05-09T07:47:13.877Z,461.00
2024-05-09T07:50:34.096Z,463.00
2024-05-09T07:53:32.429Z,463.00
2024-05-09T07:53:49.465Z,458.00
2024-05-09T07:54:00.491Z,463.00
2024-05-09T07:54:56.467Z,462.00
2024-05-09T07:55:56.815Z,464.00
2024-05-09T07:56:56.364Z,465.00
2024-05-09T07:57:57.070Z,461.00
2024-05-09T07:58:56.420Z,455.00
2024-05-09T07:59:56.007Z,455.00
2024-05-09T08:00:56.155Z,457.00
2024-05-09T08:01:56.144Z,457.00
2024-05-09T08:02:56.056Z,455.00
2024-05-09T08:03:56.372Z,456.00
2024-05-09T08:04:56.224Z,455.00
2024-05-09T08:05:55.975Z,453.00
2024-05-09T08:06:55.962Z,452.00
2024-05-09T08:07:55.919Z,455.00
2024-05-09T08:08:57.847Z,446.00
2024-05-09T08:09:56.045Z,451.00
2024-05-09T08:10:56.078Z,448.00
2024-05-09T08:11:55.991Z,448.00
2024-05-09T08:12:55.940Z,448.00
2024-05-09T08:13:55.862Z,450.00
2024-05-09T08:14:55.845Z,453.00
2024-05-09T08:15:56.027Z,450.00
2024-05-09T08:16:55.957Z,450.00
2024-05-09T08:17:56.396Z,449.00
2024-05-09T08:18:55.990Z,451.00
2024-05-09T08:19:55.799Z,452.00
2024-05-09T08:20:55.803Z,449.00
2024-05-09T08:21:55.915Z,446.00
2024-05-09T08:22:55.795Z,447.00
2024-05-09T08:23:55.882Z,453.00
2024-05-09T08:24:55.946Z,453.00
2024-05-09T08:25:55.831Z,452.00
2024-05-09T08:26:55.750Z,450.00
2024-05-09T08:27:55.907Z,449.00
2024-05-09T08:28:55.741Z,453.00
2024-05-09T08:29:55.794Z,456.00
2024-05-09T08:30:55.914Z,455.00
2024-05-09T08:31:56.006Z,454.00
2024-05-09T08:32:55.824Z,451.00
2024-05-09T08:33:55.926Z,453.00
2024-05-09T08:34:55.862Z,455.00
2024-05-09T08:35:55.656Z,453.00
2024-05-09T08:36:57.562Z,451.00
2024-05-09T08:37:55.875Z,449.00
2024-05-09T08:38:55.657Z,450.00
2024-05-09T08:39:55.762Z,444.00
2024-05-09T08:40:55.692Z,448.00
2024-05-09T08:41:55.610Z,449.00
2024-05-09T08:42:55.634Z,441.00
2024-05-09T08:43:55.629Z,447.00
2024-05-09T08:44:55.645Z,445.00
2024-05-09T08:45:55.650Z,444.00
2024-05-09T08:46:55.626Z,450.00
2024-05-09T08:47:55.780Z,449.00
2024-05-09T08:48:55.692Z,447.00
2024-05-09T08:49:55.593Z,444.00
2024-05-09T08:50:55.654Z,444.00
2024-05-09T08:51:55.647Z,440.00
2024-05-09T08:52:55.523Z,446.00
2024-05-09T08:53:55.476Z,451.00
2024-05-09T08:54:55.515Z,449.00
2024-05-09T08:55:55.533Z,447.00
2024-05-09T08:56:55.473Z,446.00
2024-05-09T08:57:55.500Z,446.00
2024-05-09T08:58:55.532Z,447.00
2024-05-09T08:59:55.442Z,451.00
2024-05-09T09:00:55.566Z,451.00
2024-05-09T09:01:55.592Z,447.00
2024-05-09T09:02:55.497Z,448.00
2024-05-09T09:03:55.596Z,449.00
2024-05-09T09:04:55.470Z,446.00
2024-05-09T09:05:55.424Z,449.00
2024-05-09T09:06:58.200Z,446.00
2024-05-09T09:07:55.352Z,449.00
2024-05-09T09:08:55.371Z,446.00
2024-05-09T09:09:55.447Z,444.00
2024-05-09T09:10:55.428Z,442.00
2024-05-09T09:11:55.407Z,451.00
2024-05-09T09:12:55.402Z,448.00
2024-05-09T09:13:55.340Z,447.00
2024-05-09T09:14:55.287Z,448.00
2024-05-09T09:15:55.324Z,450.00
2024-05-09T09:16:55.307Z,451.00
2024-05-09T09:17:55.427Z,447.00
2024-05-09T09:18:55.573Z,447.00
2024-05-09T09:19:55.458Z,452.00
2024-05-09T09:20:55.378Z,456.00
2024-05-09T09:21:55.339Z,449.00
2024-05-09T09:22:55.252Z,449.00
2024-05-09T09:23:55.313Z,457.00
2024-05-09T09:24:55.372Z,457.00
2024-05-09T09:25:55.320Z,458.00
2024-05-09T09:26:55.222Z,456.00
2024-05-09T09:27:55.346Z,454.00
2024-05-09T09:28:55.239Z,451.00
2024-05-09T09:29:55.299Z,461.00
2024-05-09T09:30:55.252Z,454.00
2024-05-09T09:31:55.174Z,455.00
2024-05-09T09:32:55.280Z,457.00
2024-05-09T09:33:55.313Z,458.00
2024-05-09T09:34:55.320Z,458.00
2024-05-09T09:35:55.446Z,462.00
2024-05-09T09:36:55.265Z,460.00
2024-05-09T09:37:55.177Z,460.00
2024-05-09T09:38:55.195Z,460.00
2024-05-09T09:39:55.183Z,463.00
2024-05-09T09:40:55.210Z,460.00
2024-05-09T09:41:55.217Z,458.00
2024-05-09T09:42:55.137Z,459.00
2024-05-09T09:43:55.100Z,461.00
2024-05-09T09:45:03.794Z,460.00
2024-05-09T09:45:56.002Z,461.00
2024-05-09T09:46:55.209Z,459.00
2024-05-09T09:47:55.251Z,458.00
2024-05-09T09:48:55.263Z,461.00
2024-05-09T09:49:55.121Z,460.00
2024-05-09T09:50:55.054Z,457.00
2024-05-09T09:51:55.272Z,461.00
2024-05-09T09:52:55.045Z,459.00
2024-05-09T09:53:55.091Z,458.00
2024-05-09T09:54:55.173Z,455.00
2024-05-09T09:55:55.453Z,455.00
2024-05-09T09:56:55.709Z,452.00
2024-05-09T09:57:55.092Z,455.00
2024-05-09T09:58:54.986Z,455.00
2024-05-09T09:59:55.050Z,450.00
2024-05-09T10:00:55.968Z,449.00
2024-05-09T10:01:56.023Z,455.00
2024-05-09T10:02:55.054Z,451.00
2024-05-09T10:03:55.240Z,453.00
2024-05-09T10:04:55.160Z,452.00
2024-05-09T10:05:55.282Z,455.00
2024-05-09T10:06:54.990Z,455.00
2024-05-09T10:07:55.019Z,453.00
2024-05-09T10:08:55.027Z,455.00
2024-05-09T10:09:54.932Z,454.00
2024-05-09T10:10:55.126Z,457.00
2024-05-09T10:11:59.978Z,459.00
2024-05-09T10:12:54.973Z,460.00
2024-05-09T10:13:55.011Z,459.00
2024-05-09T10:14:55.809Z,461.00
2024-05-09T10:15:54.954Z,458.00
2024-05-09T10:16:54.854Z,452.00
2024-05-09T10:17:55.073Z,457.00
2024-05-09T10:18:55.247Z,453.00
2024-05-09T10:19:55.885Z,456.00
2024-05-09T10:20:54.841Z,456.00
2024-05-09T10:21:54.936Z,460.00
2024-05-09T10:22:54.810Z,469.00
2024-05-09T10:23:54.880Z,467.00
2024-05-09T10:24:54.975Z,466.00
2024-05-09T10:25:54.796Z,469.00
2024-05-09T10:26:54.773Z,470.00
2024-05-09T10:27:54.905Z,465.00
2024-05-09T10:28:54.744Z,465.00
2024-05-09T10:29:54.943Z,460.00
2024-05-09T10:30:54.830Z,432.00
2024-05-09T10:31:54.798Z,450.00
2024-05-09T10:32:54.799Z,448.00
2024-05-09T10:33:55.024Z,451.00
2024-05-09T10:34:54.743Z,453.00
2024-05-09T10:35:54.794Z,446.00
2024-05-09T10:36:55.351Z,448.00
2024-05-09T10:37:54.716Z,446.00
2024-05-09T10:38:54.721Z,446.00
2024-05-09T10:39:54.812Z,455.00
2024-05-09T10:40:54.645Z,453.00
2024-05-09T10:41:54.665Z,451.00
2024-05-09T10:42:54.764Z,454.00
2024-05-09T10:43:54.682Z,473.00
2024-05-09T10:44:54.903Z,465.00
2024-05-09T10:45:54.628Z,467.00
2024-05-09T10:46:54.946Z,469.00
2024-05-09T10:47:54.704Z,464.00
2024-05-09T10:48:54.745Z,464.00
2024-05-09T10:49:54.715Z,466.00
2024-05-09T10:50:54.620Z,467.00
2024-05-09T10:51:54.640Z,464.00
2024-05-09T10:52:54.520Z,466.00
2024-05-09T10:53:54.538Z,466.00
2024-05-09T10:54:54.603Z,465.00
2024-05-09T10:55:54.461Z,460.00
2024-05-09T10:56:54.563Z,457.00
2024-05-09T10:57:54.596Z,459.00
2024-05-09T10:58:54.505Z,469.00
2024-05-09T10:59:54.481Z,470.00
2024-05-09T11:00:54.560Z,466.00
2024-05-09T11:01:54.462Z,461.00
2024-05-09T11:02:54.496Z,462.00
2024-05-09T11:03:54.547Z,467.00
2024-05-09T11:04:54.496Z,470.00
2024-05-09T11:05:54.468Z,471.00
2024-05-09T11:06:55.016Z,459.00
2024-05-09T11:07:54.317Z,459.00
2024-05-09T11:08:54.361Z,461.00
2024-05-09T11:09:54.411Z,460.00
2024-05-09T11:10:54.569Z,455.00
2024-05-09T11:11:54.543Z,459.00
2024-05-09T11:12:54.420Z,459.00
2024-05-09T11:13:54.254Z,469.00
2024-05-09T11:14:54.276Z,460.00
2024-05-09T11:15:54.292Z,457.00
2024-05-09T11:16:54.302Z,485.00
2024-05-09T11:17:54.290Z,453.00
2024-05-09T11:18:54.481Z,458.00
2024-05-09T11:19:54.162Z,456.00
2024-05-09T11:20:54.154Z,464.00
2024-05-09T11:21:54.222Z,453.00
2024-05-09T11:22:54.215Z,459.00
2024-05-09T11:23:54.125Z,454.00
2024-05-09T11:24:54.327Z,455.00
2024-05-09T11:25:54.153Z,457.00
2024-05-09T11:26:54.107Z,480.00
2024-05-09T11:27:54.067Z,453.00
2024-05-09T11:28:54.096Z,453.00
2024-05-09T11:29:54.021Z,455.00
2024-05-09T11:30:54.103Z,458.00
2024-05-09T11:31:54.159Z,453.00
2024-05-09T11:32:54.075Z,448.00
2024-05-09T11:33:54.108Z,454.00
2024-05-09T11:34:53.962Z,457.00
2024-05-09T11:35:53.933Z,450.00
2024-05-09T11:36:54.063Z,446.00
2024-05-09T11:37:54.028Z,449.00
2024-05-09T11:38:53.917Z,462.00
2024-05-09T11:39:53.916Z,451.00
2024-05-09T11:40:54.273Z,453.00
2024-05-09T11:41:53.876Z,441.00
2024-05-09T11:42:53.912Z,450.00
2024-05-09T11:43:53.900Z,451.00
2024-05-09T11:44:53.829Z,448.00
2024-05-09T11:45:53.874Z,446.00
2024-05-09T11:46:53.815Z,447.00
2024-05-09T11:47:54.044Z,443.00
2024-05-09T11:48:54.025Z,444.00
2024-05-09T11:49:53.977Z,443.00
2024-05-09T11:50:53.858Z,451.00
2024-05-09T11:51:53.886Z,449.00
2024-05-09T11:52:54.484Z,448.00
2024-05-09T11:53:53.718Z,450.00
2024-05-09T11:54:53.899Z,454.00
2024-05-09T11:55:53.830Z,453.00
2024-05-09T11:56:53.692Z,450.00
2024-05-09T11:57:53.789Z,450.00
2024-05-09T11:58:53.719Z,455.00
2024-05-09T11:59:53.702Z,463.00
2024-05-09T12:00:53.787Z,448.00
2024-05-09T12:01:53.931Z,445.00
2024-05-09T12:02:53.657Z,448.00
2024-05-09T12:03:53.731Z,448.00
2024-05-09T12:04:53.837Z,449.00
2024-05-09T12:05:53.674Z,449.00
2024-05-09T12:06:53.718Z,453.00
2024-05-09T12:07:53.622Z,452.00
2024-05-09T12:08:53.715Z,445.00
2024-05-09T12:09:53.628Z,446.00
2024-05-09T12:10:53.965Z,452.00
2024-05-09T12:11:53.580Z,456.00
2024-05-09T12:12:53.618Z,453.00
2024-05-09T12:13:53.594Z,454.00
2024-05-09T12:14:53.501Z,446.00
2024-05-09T12:15:53.577Z,448.00
2024-05-09T12:16:53.515Z,448.00
2024-05-09T12:17:53.728Z,450.00
2024-05-09T12:18:53.621Z,446.00
2024-05-09T12:19:53.435Z,447.00
2024-05-09T12:20:53.438Z,452.00
2024-05-09T12:21:53.517Z,467.00
2024-05-09T12:22:53.517Z,461.00
2024-05-09T12:23:53.382Z,460.00
2024-05-09T12:24:53.452Z,449.00
2024-05-09T12:25:53.434Z,450.00
2024-05-09T12:26:53.620Z,452.00
2024-05-09T12:27:53.427Z,448.00
2024-05-09T12:28:53.349Z,446.00
2024-05-09T12:29:53.323Z,449.00
2024-05-09T12:30:53.351Z,456.00
2024-05-09T12:31:53.431Z,455.00
2024-05-09T12:32:53.576Z,458.00
2024-05-09T12:33:53.421Z,452.00